»·PEaware :: DCM205 KSAN-KPHX

DCM205 :: KSAN-KPHX

FLIGHT INFORMATION

Flight Status: Arrived
Operator:
DotCom
More flights by this operator :: More flights under this callsign
Pilot: Chris S. (2433)
Aircraft: AIRBUS A320
(A320)
More flights by this aircraft type
Origin: KSAN San Diego Intl-Lindbergh
United States
Destination: KPHX Phoenix Sky Harbor Intl
United States
More flights between these airports :: More routes between these airports
Route: +ZZOOO2 IPL J18 BZA HOGGZ HYDRR1
File this flight plan on PilotEdge
Remarks:
Altitude:
(Current/Filed)
33,000ft
Speed:
(Current/Filed)
450kts
Departed: 07-Jun-20 07:53 AM
Arrived: 07-Jun-20 08:40 AM
Distance/Time
Traveled:
264nm/0:46
Distance/Time
To Go:
Arrived

Flight Plot

Page will automatically refresh every two minutes.

Flight plan parsing failed; only flown route is shown


Map Options




Map Legend


Flown Route
Filed Route
Departure Airport
Arrival Airport
Navaid (VOR, NDB)
Fix

Horizontal Profiles

Position Reports

Time Latitude Longitude Heading Altitude Ground
Speed
07-Jun-20 07:28 32.734640 -117.203826 195 29ft 0kts
07-Jun-20 07:29 32.734640 -117.203826 195 29ft 0kts
07-Jun-20 07:30 32.734640 -117.203826 195 29ft 0kts
07-Jun-20 07:31 32.734640 -117.203826 195 29ft 0kts
07-Jun-20 07:32 32.734640 -117.203826 195 29ft 0kts
07-Jun-20 07:33 32.734640 -117.203826 195 29ft 0kts
07-Jun-20 07:34 32.734640 -117.203826 195 29ft 0kts
07-Jun-20 07:35 32.734640 -117.203826 195 29ft 0kts
07-Jun-20 07:36 32.734640 -117.203826 195 29ft 0kts
07-Jun-20 07:37 32.734640 -117.203826 195 29ft 0kts
07-Jun-20 07:38 32.734640 -117.203826 195 29ft 0kts
07-Jun-20 07:39 32.734801 -117.203780 186 29ft 2kts
07-Jun-20 07:40 32.735352 -117.204227 105 29ft 1kts
07-Jun-20 07:41 32.735352 -117.204227 105 29ft 0kts
07-Jun-20 07:42 32.735351 -117.204226 105 29ft 0kts
07-Jun-20 07:43 32.735351 -117.204226 105 29ft 0kts
07-Jun-20 07:44 32.735257 -117.203821 105 29ft 11kts
07-Jun-20 07:45 32.734745 -117.198847 105 29ft 17kts
07-Jun-20 07:46 32.733210 -117.192492 106 29ft 22kts
07-Jun-20 07:47 32.731403 -117.185086 105 29ft 24kts
07-Jun-20 07:48 32.729753 -117.178196 104 29ft 0kts
07-Jun-20 07:49 32.729753 -117.178196 104 29ft 0kts
07-Jun-20 07:50 32.729753 -117.178195 104 29ft 0kts
07-Jun-20 07:51 32.730116 -117.176840 11 29ft 9kts
07-Jun-20 07:52 32.736187 -117.200605 286 159ft 175kts
07-Jun-20 07:53 32.750074 -117.257615 286 2591ft 197kts
07-Jun-20 07:54 32.741513 -117.326940 213 4562ft 268kts
07-Jun-20 07:55 32.675784 -117.295296 128 7544ft 297kts
07-Jun-20 07:56 32.626118 -117.215863 96 10160ft 313kts
07-Jun-20 07:57 32.619325 -117.104338 95 11733ft 366kts
07-Jun-20 07:58 32.607192 -116.978913 96 13791ft 392kts
07-Jun-20 07:59 32.613770 -116.848421 74 15826ft 407kts
07-Jun-20 08:00 32.636794 -116.713920 84 17619ft 425kts
07-Jun-20 08:01 32.649485 -116.572057 83 19291ft 438kts
07-Jun-20 08:02 32.663838 -116.426310 84 20871ft 450kts
07-Jun-20 08:03 32.678050 -116.276734 83 22340ft 460kts
07-Jun-20 08:04 32.692400 -116.124063 84 23689ft 470kts
07-Jun-20 08:05 32.706880 -115.968380 84 24907ft 479kts
07-Jun-20 08:06 32.721467 -115.809389 84 26065ft 488kts
07-Jun-20 08:07 32.736193 -115.647734 84 27145ft 496kts
07-Jun-20 08:08 32.749438 -115.483141 88 28125ft 505kts
07-Jun-20 08:10 32.753034 -115.315988 89 29390ft 504kts
07-Jun-20 08:11 32.757075 -115.149666 89 30685ft 503kts
07-Jun-20 08:12 32.760544 -114.984233 89 31846ft 501kts
07-Jun-20 08:13 32.763779 -114.818639 88 32859ft 497kts
07-Jun-20 08:14 32.766918 -114.655932 89 32868ft 492kts
07-Jun-20 08:15 32.769387 -114.493548 89 32870ft 491kts
07-Jun-20 08:16 32.771560 -114.330732 89 32910ft 491kts
07-Jun-20 08:17 32.773419 -114.170071 90 31653ft 479kts
07-Jun-20 08:18 32.779824 -114.016407 83 29939ft 457kts
07-Jun-20 08:19 32.796938 -113.868582 83 27481ft 456kts
07-Jun-20 08:20 32.813430 -113.715980 79 25033ft 465kts
07-Jun-20 08:21 32.885376 -113.594516 42 24383ft 448kts
07-Jun-20 08:22 32.968247 -113.483951 46 21962ft 442kts
07-Jun-20 08:23 33.048610 -113.375523 45 19833ft 430kts
07-Jun-20 08:24 33.126597 -113.269900 45 17818ft 419kts
07-Jun-20 08:25 33.200800 -113.169347 46 16619ft 391kts
07-Jun-20 08:25 33.259650 -113.089264 48 15351ft 380kts
07-Jun-20 08:27 33.276984 -112.952789 93 14089ft 348kts
07-Jun-20 08:28 33.279828 -112.838973 90 12751ft 338kts
07-Jun-20 08:28 33.305424 -112.751917 64 11776ft 324kts
07-Jun-20 08:30 33.347150 -112.643639 66 10701ft 294kts
07-Jun-20 08:30 33.373978 -112.573921 67 9864ft 268kts
07-Jun-20 08:31 33.403940 -112.494956 68 8241ft 254kts
07-Jun-20 08:32 33.429263 -112.417662 86 6952ft 245kts
07-Jun-20 08:33 33.434862 -112.337338 92 6142ft 236kts
07-Jun-20 08:34 33.428825 -112.262079 93 4941ft 216kts
07-Jun-20 08:35 33.428967 -112.195297 92 3906ft 175kts
07-Jun-20 08:36 33.428926 -112.142488 92 3037ft 154kts
07-Jun-20 08:37 33.428893 -112.091872 91 2225ft 149kts
07-Jun-20 08:38 33.428840 -112.042328 92 1435ft 147kts
07-Jun-20 08:39 33.428832 -112.006982 92 1149ft 24kts
07-Jun-20 08:40 33.429858 -112.004284 68 1149ft 2kts
07-Jun-20 08:41 33.432101 -112.003605 305 1149ft 11kts
07-Jun-20 08:42 33.432830 -112.006886 269 1149ft 17kts
07-Jun-20 08:43 33.433906 -112.007966 300 1149ft 0kts

Navigation Log

Ident Type
Flight plan parsing failed, navigation log unavailable